sensor_id;sensor_type;location;lat;lon;timestamp;P1;durP1;ratioP1;P2;durP2;ratioP2
75171;SDS011;63750;52.418;20.742;2023-04-03T00:01:04;3.60;;;3.00;;
75171;SDS011;63750;52.418;20.742;2023-04-03T00:03:34;5.30;;;3.00;;
75171;SDS011;63750;52.418;20.742;2023-04-03T00:06:03;6.30;;;3.30;;
75171;SDS011;63750;52.418;20.742;2023-04-03T00:08:32;4.30;;;3.00;;
75171;SDS011;63750;52.418;20.742;2023-04-03T00:11:00;4.30;;;3.20;;
75171;SDS011;63750;52.418;20.742;2023-04-03T00:13:30;3.00;;;2.70;;
75171;SDS011;63750;52.418;20.742;2023-04-03T00:15:59;4.00;;;2.80;;
75171;SDS011;63750;52.418;20.742;2023-04-03T00:18:28;3.80;;;2.90;;
75171;SDS011;63750;52.418;20.742;2023-04-03T00:20:56;4.60;;;3.20;;
75171;SDS011;63750;52.418;20.742;2023-04-03T00:23:25;3.00;;;2.70;;
75171;SDS011;63750;52.418;20.742;2023-04-03T00:25:54;4.70;;;3.10;;
75171;SDS011;63750;52.418;20.742;2023-04-03T00:28:22;4.20;;;3.00;;
75171;SDS011;63750;52.418;20.742;2023-04-03T00:30:51;3.50;;;2.90;;
75171;SDS011;63750;52.418;20.742;2023-04-03T00:33:19;4.30;;;3.40;;
75171;SDS011;63750;52.418;20.742;2023-04-03T00:35:48;4.90;;;3.20;;
75171;SDS011;63750;52.418;20.742;2023-04-03T00:38:17;4.10;;;3.00;;
75171;SDS011;63750;52.418;20.742;2023-04-03T00:40:47;3.50;;;3.00;;
75171;SDS011;63750;52.418;20.742;2023-04-03T00:43:17;4.80;;;3.00;;
75171;SDS011;63750;52.418;20.742;2023-04-03T00:45:48;3.60;;;2.80;;
75171;SDS011;63750;52.418;20.742;2023-04-03T00:48:18;3.10;;;2.60;;
75171;SDS011;63750;52.418;20.742;2023-04-03T00:50:49;4.00;;;2.70;;
75171;SDS011;63750;52.418;20.742;2023-04-03T00:53:20;3.30;;;3.00;;
75171;SDS011;63750;52.418;20.742;2023-04-03T00:55:52;4.20;;;2.90;;
75171;SDS011;63750;52.418;20.742;2023-04-03T00:58:24;3.50;;;3.10;;
75171;SDS011;63750;52.418;20.742;2023-04-03T01:00:58;5.00;;;3.30;;
75171;SDS011;63750;52.418;20.742;2023-04-03T01:03:30;3.30;;;3.00;;
75171;SDS011;63750;52.418;20.742;2023-04-03T01:05:59;3.40;;;3.10;;
75171;SDS011;63750;52.418;20.742;2023-04-03T01:08:28;4.60;;;3.40;;
75171;SDS011;63750;52.418;20.742;2023-04-03T01:10:57;3.50;;;2.80;;
75171;SDS011;63750;52.418;20.742;2023-04-03T01:13:26;4.00;;;3.30;;
75171;SDS011;63750;52.418;20.742;2023-04-03T01:15:57;4.10;;;2.90;;
75171;SDS011;63750;52.418;20.742;2023-04-03T01:18:29;4.50;;;2.90;;
75171;SDS011;63750;52.418;20.742;2023-04-03T01:21:08;4.40;;;3.10;;
75171;SDS011;63750;52.418;20.742;2023-04-03T01:23:56;4.90;;;2.90;;
75171;SDS011;63750;52.418;20.742;2023-04-03T01:26:32;3.50;;;2.60;;
75171;SDS011;63750;52.418;20.742;2023-04-03T01:29:01;4.60;;;2.60;;
75171;SDS011;63750;52.418;20.742;2023-04-03T01:31:30;3.10;;;2.60;;
75171;SDS011;63750;52.418;20.742;2023-04-03T01:34:10;6.20;;;2.80;;
75171;SDS011;63750;52.418;20.742;2023-04-03T01:36:39;3.80;;;2.60;;
75171;SDS011;63750;52.418;20.742;2023-04-03T01:39:07;3.30;;;2.90;;
75171;SDS011;63750;52.418;20.742;2023-04-03T01:41:36;3.80;;;2.60;;
75171;SDS011;63750;52.418;20.742;2023-04-03T01:44:05;3.50;;;2.60;;
75171;SDS011;63750;52.418;20.742;2023-04-03T01:46:33;3.00;;;2.70;;
75171;SDS011;63750;52.418;20.742;2023-04-03T01:49:02;5.00;;;2.70;;
75171;SDS011;63750;52.418;20.742;2023-04-03T01:51:32;4.10;;;2.50;;
75171;SDS011;63750;52.418;20.742;2023-04-03T01:54:00;3.30;;;2.80;;
75171;SDS011;63750;52.418;20.742;2023-04-03T01:56:29;3.60;;;2.70;;
75171;SDS011;63750;52.418;20.742;2023-04-03T01:58:57;3.20;;;2.60;;
75171;SDS011;63750;52.418;20.742;2023-04-03T02:01:26;4.60;;;3.20;;
75171;SDS011;63750;52.418;20.742;2023-04-03T02:03:54;3.90;;;2.80;;
75171;SDS011;63750;52.418;20.742;2023-04-03T02:06:23;3.70;;;3.20;;
75171;SDS011;63750;52.418;20.742;2023-04-03T02:08:51;3.30;;;2.90;;
75171;SDS011;63750;52.418;20.742;2023-04-03T02:11:20;4.30;;;2.90;;
75171;SDS011;63750;52.418;20.742;2023-04-03T02:13:48;3.90;;;2.80;;
75171;SDS011;63750;52.418;20.742;2023-04-03T02:16:17;2.70;;;2.50;;
75171;SDS011;63750;52.418;20.742;2023-04-03T02:18:45;3.60;;;2.70;;
75171;SDS011;63750;52.418;20.742;2023-04-03T02:21:14;3.70;;;2.90;;
75171;SDS011;63750;52.418;20.742;2023-04-03T02:23:42;5.90;;;3.10;;
75171;SDS011;63750;52.418;20.742;2023-04-03T02:26:13;4.00;;;2.70;;
75171;SDS011;63750;52.418;20.742;2023-04-03T02:28:42;2.90;;;2.70;;
75171;SDS011;63750;52.418;20.742;2023-04-03T02:31:11;3.70;;;2.80;;
75171;SDS011;63750;52.418;20.742;2023-04-03T02:33:40;4.20;;;3.10;;
75171;SDS011;63750;52.418;20.742;2023-04-03T02:36:08;3.20;;;2.80;;
75171;SDS011;63750;52.418;20.742;2023-04-03T02:38:37;3.40;;;2.60;;
75171;SDS011;63750;52.418;20.742;2023-04-03T02:41:07;4.90;;;2.70;;
75171;SDS011;63750;52.418;20.742;2023-04-03T02:43:36;3.30;;;3.00;;
75171;SDS011;63750;52.418;20.742;2023-04-03T02:46:05;3.50;;;3.20;;
75171;SDS011;63750;52.418;20.742;2023-04-03T02:48:34;5.20;;;3.00;;
75171;SDS011;63750;52.418;20.742;2023-04-03T02:51:03;4.90;;;3.30;;
75171;SDS011;63750;52.418;20.742;2023-04-03T02:53:32;4.30;;;3.40;;
75171;SDS011;63750;52.418;20.742;2023-04-03T02:56:00;4.20;;;2.90;;
75171;SDS011;63750;52.418;20.742;2023-04-03T02:58:29;3.40;;;2.90;;
75171;SDS011;63750;52.418;20.742;2023-04-03T03:00:58;4.30;;;2.90;;
75171;SDS011;63750;52.418;20.742;2023-04-03T03:03:26;4.40;;;2.90;;
75171;SDS011;63750;52.418;20.742;2023-04-03T03:06:01;4.10;;;3.40;;
75171;SDS011;63750;52.418;20.742;2023-04-03T03:08:31;5.60;;;2.90;;
75171;SDS011;63750;52.418;20.742;2023-04-03T03:11:00;3.70;;;3.00;;
75171;SDS011;63750;52.418;20.742;2023-04-03T03:13:29;5.10;;;3.10;;
75171;SDS011;63750;52.418;20.742;2023-04-03T03:15:58;3.70;;;2.90;;
75171;SDS011;63750;52.418;20.742;2023-04-03T03:18:27;3.30;;;2.60;;
75171;SDS011;63750;52.418;20.742;2023-04-03T03:20:58;3.30;;;3.00;;
75171;SDS011;63750;52.418;20.742;2023-04-03T03:23:28;3.70;;;2.80;;
75171;SDS011;63750;52.418;20.742;2023-04-03T03:25:58;4.50;;;3.00;;
75171;SDS011;63750;52.418;20.742;2023-04-03T03:28:29;3.20;;;2.70;;
75171;SDS011;63750;52.418;20.742;2023-04-03T03:30:58;3.20;;;2.80;;
75171;SDS011;63750;52.418;20.742;2023-04-03T03:33:26;4.10;;;3.00;;
75171;SDS011;63750;52.418;20.742;2023-04-03T03:35:55;4.50;;;2.90;;
75171;SDS011;63750;52.418;20.742;2023-04-03T03:38:24;5.70;;;3.20;;
75171;SDS011;63750;52.418;20.742;2023-04-03T03:40:53;4.30;;;3.50;;
75171;SDS011;63750;52.418;20.742;2023-04-03T03:43:21;5.30;;;3.20;;
75171;SDS011;63750;52.418;20.742;2023-04-03T03:45:51;5.10;;;3.40;;
75171;SDS011;63750;52.418;20.742;2023-04-03T03:48:20;4.90;;;3.40;;
75171;SDS011;63750;52.418;20.742;2023-04-03T03:50:49;6.20;;;3.90;;
75171;SDS011;63750;52.418;20.742;2023-04-03T03:53:17;5.30;;;3.20;;
75171;SDS011;63750;52.418;20.742;2023-04-03T03:55:46;5.70;;;4.10;;
75171;SDS011;63750;52.418;20.742;2023-04-03T03:58:14;6.20;;;4.20;;
75171;SDS011;63750;52.418;20.742;2023-04-03T04:00:43;4.60;;;3.50;;
75171;SDS011;63750;52.418;20.742;2023-04-03T04:03:11;4.20;;;3.50;;
75171;SDS011;63750;52.418;20.742;2023-04-03T04:05:40;5.80;;;3.30;;
75171;SDS011;63750;52.418;20.742;2023-04-03T04:08:09;6.30;;;3.70;;
75171;SDS011;63750;52.418;20.742;2023-04-03T04:10:38;5.60;;;3.50;;
75171;SDS011;63750;52.418;20.742;2023-04-03T04:13:06;4.00;;;3.40;;
75171;SDS011;63750;52.418;20.742;2023-04-03T04:15:35;4.90;;;3.50;;
75171;SDS011;63750;52.418;20.742;2023-04-03T04:18:03;5.00;;;3.10;;
75171;SDS011;63750;52.418;20.742;2023-04-03T04:20:32;4.50;;;3.40;;
75171;SDS011;63750;52.418;20.742;2023-04-03T04:23:01;4.40;;;3.30;;
75171;SDS011;63750;52.418;20.742;2023-04-03T04:25:29;4.50;;;3.30;;
75171;SDS011;63750;52.418;20.742;2023-04-03T04:27:58;4.00;;;3.10;;
75171;SDS011;63750;52.418;20.742;2023-04-03T04:30:26;3.70;;;3.10;;
75171;SDS011;63750;52.418;20.742;2023-04-03T04:32:55;3.50;;;3.10;;
75171;SDS011;63750;52.418;20.742;2023-04-03T04:35:23;3.20;;;2.90;;
75171;SDS011;63750;52.418;20.742;2023-04-03T04:37:52;5.60;;;3.20;;
75171;SDS011;63750;52.418;20.742;2023-04-03T04:40:21;3.30;;;2.70;;
75171;SDS011;63750;52.418;20.742;2023-04-03T04:42:49;4.50;;;3.30;;
75171;SDS011;63750;52.418;20.742;2023-04-03T04:45:18;5.60;;;3.20;;
75171;SDS011;63750;52.418;20.742;2023-04-03T04:47:47;4.30;;;3.40;;
75171;SDS011;63750;52.418;20.742;2023-04-03T04:50:15;6.60;;;3.00;;
75171;SDS011;63750;52.418;20.742;2023-04-03T04:52:44;3.60;;;2.90;;
75171;SDS011;63750;52.418;20.742;2023-04-03T04:55:13;3.90;;;3.10;;
75171;SDS011;63750;52.418;20.742;2023-04-03T04:57:41;5.00;;;3.10;;
75171;SDS011;63750;52.418;20.742;2023-04-03T05:00:11;4.40;;;3.20;;
75171;SDS011;63750;52.418;20.742;2023-04-03T05:02:41;5.80;;;3.40;;
75171;SDS011;63750;52.418;20.742;2023-04-03T05:05:10;4.40;;;3.20;;
75171;SDS011;63750;52.418;20.742;2023-04-03T05:07:38;3.80;;;3.10;;
75171;SDS011;63750;52.418;20.742;2023-04-03T05:10:09;5.30;;;3.60;;
75171;SDS011;63750;52.418;20.742;2023-04-03T05:12:37;3.90;;;3.10;;
75171;SDS011;63750;52.418;20.742;2023-04-03T05:15:07;3.50;;;3.10;;
75171;SDS011;63750;52.418;20.742;2023-04-03T05:17:37;3.70;;;2.80;;
75171;SDS011;63750;52.418;20.742;2023-04-03T05:20:06;4.20;;;3.30;;
75171;SDS011;63750;52.418;20.742;2023-04-03T05:22:35;6.00;;;3.50;;
75171;SDS011;63750;52.418;20.742;2023-04-03T05:25:05;4.30;;;3.30;;
75171;SDS011;63750;52.418;20.742;2023-04-03T05:27:35;5.30;;;3.60;;
75171;SDS011;63750;52.418;20.742;2023-04-03T05:30:04;4.50;;;3.30;;
75171;SDS011;63750;52.418;20.742;2023-04-03T05:32:37;4.60;;;3.20;;
75171;SDS011;63750;52.418;20.742;2023-04-03T05:35:06;4.90;;;3.30;;
75171;SDS011;63750;52.418;20.742;2023-04-03T05:37:35;4.80;;;3.60;;
75171;SDS011;63750;52.418;20.742;2023-04-03T05:40:05;5.30;;;3.40;;
75171;SDS011;63750;52.418;20.742;2023-04-03T05:42:35;4.70;;;3.30;;
75171;SDS011;63750;52.418;20.742;2023-04-03T05:45:04;4.70;;;3.50;;
75171;SDS011;63750;52.418;20.742;2023-04-03T05:47:33;5.20;;;3.70;;
75171;SDS011;63750;52.418;20.742;2023-04-03T05:50:02;7.80;;;3.70;;
75171;SDS011;63750;52.418;20.742;2023-04-03T05:52:31;5.90;;;3.60;;
75171;SDS011;63750;52.418;20.742;2023-04-03T05:55:02;5.00;;;3.80;;
75171;SDS011;63750;52.418;20.742;2023-04-03T05:57:32;6.20;;;3.80;;
75171;SDS011;63750;52.418;20.742;2023-04-03T06:00:00;5.70;;;3.70;;
75171;SDS011;63750;52.418;20.742;2023-04-03T06:02:30;4.90;;;3.20;;
75171;SDS011;63750;52.418;20.742;2023-04-03T06:04:58;3.40;;;3.10;;
75171;SDS011;63750;52.418;20.742;2023-04-03T06:07:27;5.00;;;3.20;;
75171;SDS011;63750;52.418;20.742;2023-04-03T06:09:55;4.90;;;3.50;;
75171;SDS011;63750;52.418;20.742;2023-04-03T06:12:25;4.50;;;3.20;;
75171;SDS011;63750;52.418;20.742;2023-04-03T06:14:53;5.00;;;3.20;;
75171;SDS011;63750;52.418;20.742;2023-04-03T06:17:22;6.30;;;3.20;;
75171;SDS011;63750;52.418;20.742;2023-04-03T06:19:50;3.80;;;3.40;;
75171;SDS011;63750;52.418;20.742;2023-04-03T06:22:19;4.90;;;3.10;;
75171;SDS011;63750;52.418;20.742;2023-04-03T06:24:47;6.30;;;3.40;;
75171;SDS011;63750;52.418;20.742;2023-04-03T06:27:16;5.60;;;3.40;;
75171;SDS011;63750;52.418;20.742;2023-04-03T06:29:44;4.20;;;3.40;;
75171;SDS011;63750;52.418;20.742;2023-04-03T06:32:13;3.60;;;3.20;;
75171;SDS011;63750;52.418;20.742;2023-04-03T06:34:42;3.60;;;3.10;;
75171;SDS011;63750;52.418;20.742;2023-04-03T06:37:11;4.00;;;3.10;;
75171;SDS011;63750;52.418;20.742;2023-04-03T06:39:43;3.40;;;3.00;;
75171;SDS011;63750;52.418;20.742;2023-04-03T06:42:11;5.50;;;3.30;;
75171;SDS011;63750;52.418;20.742;2023-04-03T06:44:40;4.50;;;3.40;;
75171;SDS011;63750;52.418;20.742;2023-04-03T06:47:09;4.90;;;3.60;;
75171;SDS011;63750;52.418;20.742;2023-04-03T06:49:40;3.70;;;3.30;;
75171;SDS011;63750;52.418;20.742;2023-04-03T06:52:09;3.20;;;2.90;;
75171;SDS011;63750;52.418;20.742;2023-04-03T06:54:38;4.60;;;3.10;;
75171;SDS011;63750;52.418;20.742;2023-04-03T06:57:07;4.70;;;2.90;;
75171;SDS011;63750;52.418;20.742;2023-04-03T06:59:35;4.40;;;3.00;;
75171;SDS011;63750;52.418;20.742;2023-04-03T07:02:08;3.50;;;3.20;;
75171;SDS011;63750;52.418;20.742;2023-04-03T07:04:38;5.30;;;3.10;;
75171;SDS011;63750;52.418;20.742;2023-04-03T07:07:07;5.80;;;3.10;;
75171;SDS011;63750;52.418;20.742;2023-04-03T07:09:35;5.30;;;3.10;;
75171;SDS011;63750;52.418;20.742;2023-04-03T07:12:04;5.40;;;3.40;;
75171;SDS011;63750;52.418;20.742;2023-04-03T07:14:32;5.70;;;3.50;;
75171;SDS011;63750;52.418;20.742;2023-04-03T07:17:01;3.90;;;3.00;;
75171;SDS011;63750;52.418;20.742;2023-04-03T07:19:29;6.30;;;3.30;;
75171;SDS011;63750;52.418;20.742;2023-04-03T07:21:58;3.90;;;3.10;;
75171;SDS011;63750;52.418;20.742;2023-04-03T07:24:27;5.50;;;3.00;;
75171;SDS011;63750;52.418;20.742;2023-04-03T07:26:55;4.80;;;3.50;;
75171;SDS011;63750;52.418;20.742;2023-04-03T07:29:24;4.10;;;3.30;;
75171;SDS011;63750;52.418;20.742;2023-04-03T07:31:52;4.00;;;3.00;;
75171;SDS011;63750;52.418;20.742;2023-04-03T07:34:21;5.60;;;3.60;;
75171;SDS011;63750;52.418;20.742;2023-04-03T07:36:50;4.10;;;3.10;;
75171;SDS011;63750;52.418;20.742;2023-04-03T07:39:18;3.80;;;3.10;;
75171;SDS011;63750;52.418;20.742;2023-04-03T07:41:47;4.60;;;3.30;;
75171;SDS011;63750;52.418;20.742;2023-04-03T07:44:15;4.90;;;3.50;;
75171;SDS011;63750;52.418;20.742;2023-04-03T07:46:44;5.20;;;3.00;;
75171;SDS011;63750;52.418;20.742;2023-04-03T07:49:13;3.60;;;3.00;;
75171;SDS011;63750;52.418;20.742;2023-04-03T07:51:41;5.30;;;3.60;;
75171;SDS011;63750;52.418;20.742;2023-04-03T07:54:10;3.40;;;2.90;;
75171;SDS011;63750;52.418;20.742;2023-04-03T07:56:38;5.00;;;3.50;;
75171;SDS011;63750;52.418;20.742;2023-04-03T07:59:07;4.00;;;3.00;;
75171;SDS011;63750;52.418;20.742;2023-04-03T08:01:36;3.10;;;2.70;;
75171;SDS011;63750;52.418;20.742;2023-04-03T08:04:04;4.90;;;3.60;;
75171;SDS011;63750;52.418;20.742;2023-04-03T08:06:33;4.20;;;2.90;;
75171;SDS011;63750;52.418;20.742;2023-04-03T08:09:02;5.50;;;3.00;;
75171;SDS011;63750;52.418;20.742;2023-04-03T08:11:31;4.00;;;2.80;;
75171;SDS011;63750;52.418;20.742;2023-04-03T08:14:00;3.10;;;2.70;;
75171;SDS011;63750;52.418;20.742;2023-04-03T08:16:28;5.00;;;3.30;;
75171;SDS011;63750;52.418;20.742;2023-04-03T08:18:57;3.20;;;2.90;;
75171;SDS011;63750;52.418;20.742;2023-04-03T08:21:25;4.70;;;3.20;;
75171;SDS011;63750;52.418;20.742;2023-04-03T08:23:54;4.70;;;3.00;;
75171;SDS011;63750;52.418;20.742;2023-04-03T08:26:22;3.10;;;2.80;;
75171;SDS011;63750;52.418;20.742;2023-04-03T08:28:51;3.90;;;2.90;;
75171;SDS011;63750;52.418;20.742;2023-04-03T08:31:19;4.50;;;3.10;;
75171;SDS011;63750;52.418;20.742;2023-04-03T08:33:48;3.50;;;2.80;;
75171;SDS011;63750;52.418;20.742;2023-04-03T08:36:21;3.20;;;2.80;;
75171;SDS011;63750;52.418;20.742;2023-04-03T08:38:51;3.70;;;2.80;;
75171;SDS011;63750;52.418;20.742;2023-04-03T08:41:25;4.30;;;3.20;;
75171;SDS011;63750;52.418;20.742;2023-04-03T08:44:01;3.00;;;2.60;;
75171;SDS011;63750;52.418;20.742;2023-04-03T08:46:40;3.60;;;2.90;;
75171;SDS011;63750;52.418;20.742;2023-04-03T08:49:18;3.40;;;2.90;;
75171;SDS011;63750;52.418;20.742;2023-04-03T08:51:52;4.10;;;2.90;;
75171;SDS011;63750;52.418;20.742;2023-04-03T08:54:27;4.90;;;2.80;;
75171;SDS011;63750;52.418;20.742;2023-04-03T08:56:57;3.00;;;2.70;;
75171;SDS011;63750;52.418;20.742;2023-04-03T08:59:29;3.40;;;2.80;;
75171;SDS011;63750;52.418;20.742;2023-04-03T09:02:00;3.50;;;2.70;;
75171;SDS011;63750;52.418;20.742;2023-04-03T09:04:37;3.20;;;2.90;;
75171;SDS011;63750;52.418;20.742;2023-04-03T09:07:07;6.20;;;2.80;;
75171;SDS011;63750;52.418;20.742;2023-04-03T09:09:41;2.80;;;2.50;;
75171;SDS011;63750;52.418;20.742;2023-04-03T09:12:15;3.80;;;2.60;;
75171;SDS011;63750;52.418;20.742;2023-04-03T09:14:49;3.50;;;2.70;;
75171;SDS011;63750;52.418;20.742;2023-04-03T09:17:32;3.40;;;2.50;;
75171;SDS011;63750;52.418;20.742;2023-04-03T09:20:11;3.70;;;2.70;;
75171;SDS011;63750;52.418;20.742;2023-04-03T09:22:49;3.50;;;2.80;;
75171;SDS011;63750;52.418;20.742;2023-04-03T09:25:19;3.70;;;2.50;;
75171;SDS011;63750;52.418;20.742;2023-04-03T09:27:50;3.80;;;2.40;;
75171;SDS011;63750;52.418;20.742;2023-04-03T09:30:19;3.60;;;3.00;;
75171;SDS011;63750;52.418;20.742;2023-04-03T09:32:51;3.30;;;3.00;;
75171;SDS011;63750;52.418;20.742;2023-04-03T09:35:22;3.10;;;2.80;;
75171;SDS011;63750;52.418;20.742;2023-04-03T09:37:53;3.30;;;2.80;;
75171;SDS011;63750;52.418;20.742;2023-04-03T09:40:29;3.10;;;2.80;;
75171;SDS011;63750;52.418;20.742;2023-04-03T09:43:00;6.30;;;3.00;;
75171;SDS011;63750;52.418;20.742;2023-04-03T09:45:30;4.40;;;3.10;;
75171;SDS011;63750;52.418;20.742;2023-04-03T09:48:08;3.20;;;2.90;;
75171;SDS011;63750;52.418;20.742;2023-04-03T09:50:53;4.00;;;2.90;;
75171;SDS011;63750;52.418;20.742;2023-04-03T09:53:26;2.80;;;2.60;;
75171;SDS011;63750;52.418;20.742;2023-04-03T09:55:57;3.60;;;2.50;;
75171;SDS011;63750;52.418;20.742;2023-04-03T09:58:28;3.50;;;2.70;;
75171;SDS011;63750;52.418;20.742;2023-04-03T10:00:59;4.30;;;2.60;;
75171;SDS011;63750;52.418;20.742;2023-04-03T10:03:30;3.80;;;2.60;;
75171;SDS011;63750;52.418;20.742;2023-04-03T10:06:00;2.80;;;2.60;;
75171;SDS011;63750;52.418;20.742;2023-04-03T10:08:30;3.40;;;2.60;;
75171;SDS011;63750;52.418;20.742;2023-04-03T10:11:07;3.80;;;2.60;;
75171;SDS011;63750;52.418;20.742;2023-04-03T10:13:56;4.40;;;2.40;;
75171;SDS011;63750;52.418;20.742;2023-04-03T10:16:31;3.50;;;2.80;;
75171;SDS011;63750;52.418;20.742;2023-04-03T10:19:13;4.50;;;2.90;;
75171;SDS011;63750;52.418;20.742;2023-04-03T10:21:59;3.00;;;2.30;;
75171;SDS011;63750;52.418;20.742;2023-04-03T10:24:30;2.80;;;2.50;;
75171;SDS011;63750;52.418;20.742;2023-04-03T10:27:10;3.00;;;2.50;;
75171;SDS011;63750;52.418;20.742;2023-04-03T10:29:46;3.10;;;2.60;;
75171;SDS011;63750;52.418;20.742;2023-04-03T10:32:25;5.50;;;2.50;;
75171;SDS011;63750;52.418;20.742;2023-04-03T10:35:15;2.60;;;2.30;;
75171;SDS011;63750;52.418;20.742;2023-04-03T10:37:53;3.00;;;2.50;;
75171;SDS011;63750;52.418;20.742;2023-04-03T10:40:33;4.80;;;2.50;;
75171;SDS011;63750;52.418;20.742;2023-04-03T10:43:09;3.60;;;2.30;;
75171;SDS011;63750;52.418;20.742;2023-04-03T10:45:49;3.40;;;2.50;;
75171;SDS011;63750;52.418;20.742;2023-04-03T10:48:27;3.50;;;2.20;;
75171;SDS011;63750;52.418;20.742;2023-04-03T10:51:27;3.80;;;2.20;;
75171;SDS011;63750;52.418;20.742;2023-04-03T10:54:04;3.60;;;2.40;;
75171;SDS011;63750;52.418;20.742;2023-04-03T10:56:38;2.30;;;2.10;;
75171;SDS011;63750;52.418;20.742;2023-04-03T10:59:17;3.90;;;2.10;;
75171;SDS011;63750;52.418;20.742;2023-04-03T11:02:19;2.60;;;2.40;;
75171;SDS011;63750;52.418;20.742;2023-04-03T11:05:03;2.60;;;2.30;;
75171;SDS011;63750;52.418;20.742;2023-04-03T11:07:36;2.50;;;1.90;;
75171;SDS011;63750;52.418;20.742;2023-04-03T11:10:11;2.90;;;2.10;;
75171;SDS011;63750;52.418;20.742;2023-04-03T11:12:44;2.60;;;2.00;;
75171;SDS011;63750;52.418;20.742;2023-04-03T11:15:17;3.10;;;2.40;;
75171;SDS011;63750;52.418;20.742;2023-04-03T11:17:50;2.40;;;2.20;;
75171;SDS011;63750;52.418;20.742;2023-04-03T11:20:44;2.90;;;2.10;;
75171;SDS011;63750;52.418;20.742;2023-04-03T11:23:28;2.60;;;2.40;;
75171;SDS011;63750;52.418;20.742;2023-04-03T11:26:04;2.60;;;2.30;;
75171;SDS011;63750;52.418;20.742;2023-04-03T11:28:37;2.90;;;2.60;;
75171;SDS011;63750;52.418;20.742;2023-04-03T11:31:10;3.00;;;2.30;;
75171;SDS011;63750;52.418;20.742;2023-04-03T11:33:53;2.90;;;2.50;;
75171;SDS011;63750;52.418;20.742;2023-04-03T11:36:32;2.70;;;2.20;;
75171;SDS011;63750;52.418;20.742;2023-04-03T11:39:10;2.60;;;2.00;;
75171;SDS011;63750;52.418;20.742;2023-04-03T11:41:48;4.10;;;2.40;;
75171;SDS011;63750;52.418;20.742;2023-04-03T11:44:32;3.40;;;2.80;;
75171;SDS011;63750;52.418;20.742;2023-04-03T11:47:03;3.10;;;2.40;;
75171;SDS011;63750;52.418;20.742;2023-04-03T11:49:52;3.80;;;2.20;;
75171;SDS011;63750;52.418;20.742;2023-04-03T11:58:26;1.90;;;1.80;;
75171;SDS011;63750;52.418;20.742;2023-04-03T12:01:00;2.50;;;2.00;;
75171;SDS011;63750;52.418;20.742;2023-04-03T12:12:28;2.80;;;1.90;;
75171;SDS011;63750;52.418;20.742;2023-04-03T12:15:16;2.30;;;2.10;;
75171;SDS011;63750;52.418;20.742;2023-04-03T12:17:48;3.30;;;2.00;;
75171;SDS011;63750;52.418;20.742;2023-04-03T12:23:27;2.00;;;1.70;;
75171;SDS011;63750;52.418;20.742;2023-04-03T12:26:05;2.00;;;1.90;;
75171;SDS011;63750;52.418;20.742;2023-04-03T12:28:45;4.40;;;2.20;;
75171;SDS011;63750;52.418;20.742;2023-04-03T12:31:16;2.10;;;1.90;;
75171;SDS011;63750;52.418;20.742;2023-04-03T12:33:56;2.20;;;2.00;;
75171;SDS011;63750;52.418;20.742;2023-04-03T12:36:38;5.10;;;2.30;;
75171;SDS011;63750;52.418;20.742;2023-04-03T12:39:18;4.40;;;2.70;;
75171;SDS011;63750;52.418;20.742;2023-04-03T12:42:04;2.30;;;1.90;;
75171;SDS011;63750;52.418;20.742;2023-04-03T12:44:47;2.40;;;2.20;;
75171;SDS011;63750;52.418;20.742;2023-04-03T12:47:29;2.40;;;2.00;;
75171;SDS011;63750;52.418;20.742;2023-04-03T12:50:01;2.80;;;2.60;;
75171;SDS011;63750;52.418;20.742;2023-04-03T12:52:32;2.50;;;2.20;;
75171;SDS011;63750;52.418;20.742;2023-04-03T12:55:12;3.90;;;2.30;;
75171;SDS011;63750;52.418;20.742;2023-04-03T12:57:43;2.50;;;2.30;;
75171;SDS011;63750;52.418;20.742;2023-04-03T13:00:29;4.10;;;2.30;;
75171;SDS011;63750;52.418;20.742;2023-04-03T13:03:00;2.70;;;2.30;;
75171;SDS011;63750;52.418;20.742;2023-04-03T13:05:31;3.30;;;2.00;;
75171;SDS011;63750;52.418;20.742;2023-04-03T13:08:02;2.10;;;1.90;;
75171;SDS011;63750;52.418;20.742;2023-04-03T13:10:32;2.30;;;2.10;;
75171;SDS011;63750;52.418;20.742;2023-04-03T13:13:14;3.90;;;2.20;;
75171;SDS011;63750;52.418;20.742;2023-04-03T13:15:44;2.70;;;2.40;;
75171;SDS011;63750;52.418;20.742;2023-04-03T13:21:06;3.60;;;2.60;;
75171;SDS011;63750;52.418;20.742;2023-04-03T13:23:41;3.30;;;2.90;;
75171;SDS011;63750;52.418;20.742;2023-04-03T13:26:12;3.30;;;3.00;;
75171;SDS011;63750;52.418;20.742;2023-04-03T13:28:44;3.60;;;2.90;;
75171;SDS011;63750;52.418;20.742;2023-04-03T13:31:19;7.30;;;5.70;;
75171;SDS011;63750;52.418;20.742;2023-04-03T13:33:54;4.60;;;3.10;;
75171;SDS011;63750;52.418;20.742;2023-04-03T13:36:29;8.90;;;8.00;;
75171;SDS011;63750;52.418;20.742;2023-04-03T13:39:01;6.30;;;4.60;;
75171;SDS011;63750;52.418;20.742;2023-04-03T13:41:34;7.70;;;7.00;;
75171;SDS011;63750;52.418;20.742;2023-04-03T13:44:17;6.10;;;5.10;;
75171;SDS011;63750;52.418;20.742;2023-04-03T13:46:53;9.50;;;5.90;;
75171;SDS011;63750;52.418;20.742;2023-04-03T13:49:27;9.30;;;8.30;;
75171;SDS011;63750;52.418;20.742;2023-04-03T13:51:59;10.10;;;9.10;;
75171;SDS011;63750;52.418;20.742;2023-04-03T13:54:31;8.00;;;6.70;;
75171;SDS011;63750;52.418;20.742;2023-04-03T13:57:02;6.60;;;4.90;;
75171;SDS011;63750;52.418;20.742;2023-04-03T13:59:39;6.80;;;5.30;;
75171;SDS011;63750;52.418;20.742;2023-04-03T14:02:13;5.90;;;4.20;;
75171;SDS011;63750;52.418;20.742;2023-04-03T14:04:49;3.30;;;3.00;;
75171;SDS011;63750;52.418;20.742;2023-04-03T14:07:20;5.70;;;4.40;;
75171;SDS011;63750;52.418;20.742;2023-04-03T14:09:49;4.60;;;3.50;;
75171;SDS011;63750;52.418;20.742;2023-04-03T14:12:21;3.80;;;2.90;;
75171;SDS011;63750;52.418;20.742;2023-04-03T14:14:54;9.50;;;5.40;;
75171;SDS011;63750;52.418;20.742;2023-04-03T14:17:24;4.50;;;3.80;;
75171;SDS011;63750;52.418;20.742;2023-04-03T14:19:54;6.90;;;5.50;;
75171;SDS011;63750;52.418;20.742;2023-04-03T14:22:25;14.60;;;12.00;;
75171;SDS011;63750;52.418;20.742;2023-04-03T14:24:57;12.40;;;8.70;;
75171;SDS011;63750;52.418;20.742;2023-04-03T14:27:26;10.20;;;6.60;;
75171;SDS011;63750;52.418;20.742;2023-04-03T14:29:57;29.90;;;20.60;;
75171;SDS011;63750;52.418;20.742;2023-04-03T14:32:27;11.10;;;7.90;;
75171;SDS011;63750;52.418;20.742;2023-04-03T14:34:55;11.70;;;7.10;;
75171;SDS011;63750;52.418;20.742;2023-04-03T14:37:25;10.00;;;7.10;;
75171;SDS011;63750;52.418;20.742;2023-04-03T14:39:55;12.40;;;8.00;;
75171;SDS011;63750;52.418;20.742;2023-04-03T14:42:26;18.70;;;11.70;;
75171;SDS011;63750;52.418;20.742;2023-04-03T14:44:57;9.10;;;5.30;;
75171;SDS011;63750;52.418;20.742;2023-04-03T14:47:27;6.80;;;4.80;;
75171;SDS011;63750;52.418;20.742;2023-04-03T14:49:57;8.20;;;5.50;;
75171;SDS011;63750;52.418;20.742;2023-04-03T14:52:27;10.10;;;6.40;;
75171;SDS011;63750;52.418;20.742;2023-04-03T14:54:57;6.00;;;4.70;;
75171;SDS011;63750;52.418;20.742;2023-04-03T14:57:27;5.40;;;3.20;;
75171;SDS011;63750;52.418;20.742;2023-04-03T14:59:56;7.30;;;4.80;;
75171;SDS011;63750;52.418;20.742;2023-04-03T15:02:26;6.60;;;5.00;;
75171;SDS011;63750;52.418;20.742;2023-04-03T15:04:57;7.60;;;5.70;;
75171;SDS011;63750;52.418;20.742;2023-04-03T15:07:28;6.70;;;4.50;;
75171;SDS011;63750;52.418;20.742;2023-04-03T15:09:59;4.30;;;3.60;;
75171;SDS011;63750;52.418;20.742;2023-04-03T15:12:33;4.30;;;3.60;;
75171;SDS011;63750;52.418;20.742;2023-04-03T15:15:02;5.60;;;3.50;;
75171;SDS011;63750;52.418;20.742;2023-04-03T15:17:31;5.70;;;3.20;;
75171;SDS011;63750;52.418;20.742;2023-04-03T15:20:00;3.60;;;3.10;;